Allandale, Florida
Current Conditions -  °F | °C
As of 6:53 AM on Thursday 27 Nov 2014 (Local Time) from KDAB Reporting Station
Clear Clear  
Wind Chill: 44°   Ceiling: Unl
Heat Index: 46°   Visibility: 10mi
Dew Point: 43°   Wind: 5mph
Humidity: 89%   Direction: 190°S
Pressure: 30.26"   Gusts: NA
Location:  29.1486°N, 81.0301°W
Report Text: KDAB 271153Z 19004KT 10SM CLR 08/06 A3026 RMK AO2 SLP245 70009 T00780061 10094 20078 53007
Loading
Personal Weather Stations






























Interactive Weather Map New forecast layout! Learn more

10-Day Weather Forecast

Advertisements
Track Severe Weather on mobile